Terminal Aerodrome Forecast
Issued by NWS

Home | Current Version | Previous Version | Text Only | Print | Product List | Glossary On
Versions: 1 2 3 4 5 6 7 8 9 10 11 12 13
000
FTUS42 KGSP 240537
TAFAND
TAF
KAND 240537Z 2406/2506 23004KT P6SM BKN150
     FM240900 24005KT P6SM SCT110
     FM241200 24005KT P6SM BKN250
     FM241700 25006KT P6SM SCT045 PROB30 2420/2424 4SM -TSRA
      OVC025CB
     FM250000 24005KT P6SM SCT250=

USA.gov is the U.S. government's official web portal to all federal, state and local government web resources and services.